createdAt,value
2022-09-13T00:00:49.600Z,100553.13
2022-09-13T00:03:16.033Z,100578.31
2022-09-13T00:05:42.404Z,100632.06
2022-09-13T00:08:09.191Z,100692.47
2022-09-13T00:10:37.378Z,100734.00
2022-09-13T00:13:04.150Z,100778.72
2022-09-13T00:15:30.901Z,100800.88
2022-09-13T00:17:57.303Z,100806.97
2022-09-13T00:20:23.875Z,100828.59
2022-09-13T00:22:50.190Z,100857.91
2022-09-13T00:25:16.898Z,100896.94
2022-09-13T00:27:44.619Z,100951.00
2022-09-13T00:30:11.439Z,101002.28
2022-09-13T00:32:38.124Z,101034.47
2022-09-13T00:35:05.595Z,101065.22
2022-09-13T00:37:33.279Z,101067.75
2022-09-13T00:40:00.117Z,101110.31
2022-09-13T00:42:27.606Z,101128.31
2022-09-13T00:44:55.948Z,101152.69
2022-09-13T00:47:37.643Z,101172.38
2022-09-13T00:50:07.350Z,101207.22
2022-09-13T00:52:34.694Z,101246.00
2022-09-13T00:55:06.560Z,101293.66
2022-09-13T00:57:35.024Z,101338.78
2022-09-13T01:00:13.050Z,101390.69
2022-09-13T01:02:53.961Z,101433.91
2022-09-13T01:05:22.380Z,101472.84
2022-09-13T01:07:49.054Z,101503.41
2022-09-13T01:10:15.478Z,101531.75
2022-09-13T01:12:46.099Z,101554.00
2022-09-13T01:15:12.500Z,101599.00
2022-09-13T01:17:39.411Z,101619.94
2022-09-13T01:20:06.922Z,101640.69
2022-09-13T01:22:36.234Z,101643.78
2022-09-13T01:25:16.383Z,101657.28
2022-09-13T01:27:42.745Z,101667.00
2022-09-13T01:30:15.067Z,101684.00
2022-09-13T01:32:59.883Z,101693.97
2022-09-13T01:35:44.739Z,101693.53
2022-09-13T01:38:11.163Z,101700.47
2022-09-13T01:40:48.866Z,101719.03
2022-09-13T01:43:28.658Z,101735.41
2022-09-13T01:45:55.045Z,101740.28
2022-09-13T01:48:24.961Z,101756.94
2022-09-13T01:51:10.084Z,101785.25
2022-09-13T01:53:56.701Z,101799.56
2022-09-13T01:56:26.838Z,101825.69
2022-09-13T01:58:55.591Z,101835.72
2022-09-13T02:01:42.749Z,101843.09
2022-09-13T02:04:13.158Z,101847.31
2022-09-13T02:06:47.815Z,101865.63
2022-09-13T02:09:21.601Z,101877.84
2022-09-13T02:11:50.905Z,101910.69
2022-09-13T02:14:20.550Z,101923.56
2022-09-13T02:16:56.526Z,101935.34
2022-09-13T02:19:36.039Z,101945.25
2022-09-13T02:22:03.521Z,101971.97
2022-09-13T02:24:32.269Z,102002.28
2022-09-13T02:27:01.382Z,102027.97
2022-09-13T02:29:29.460Z,102044.25
2022-09-13T02:32:03.867Z,102095.97
2022-09-13T02:34:38.189Z,102138.56
2022-09-13T02:37:06.922Z,102176.16
2022-09-13T02:39:35.789Z,102191.59
2022-09-13T02:42:12.334Z,102202.97
2022-09-13T02:44:46.522Z,102233.84
2022-09-13T02:47:22.602Z,102242.09
2022-09-13T02:50:06.203Z,102260.69
2022-09-13T02:52:41.614Z,102261.44
2022-09-13T02:55:20.320Z,102273.28
2022-09-13T02:58:00.926Z,102272.59
2022-09-13T03:00:28.304Z,102325.88
2022-09-13T03:02:56.634Z,102346.09
2022-09-13T03:05:23.073Z,102344.81
2022-09-13T03:07:50.457Z,102364.31
2022-09-13T03:10:17.459Z,102368.47
2022-09-13T03:12:53.006Z,102379.88
2022-09-13T03:15:24.257Z,102386.25
2022-09-13T03:18:02.718Z,102396.94
2022-09-13T03:20:43.806Z,102404.38
2022-09-13T03:23:28.978Z,102396.25
2022-09-13T03:26:01.298Z,102402.50
2022-09-13T03:28:35.628Z,102396.34
2022-09-13T03:31:07.873Z,102386.75
2022-09-13T03:33:36.993Z,102402.31
2022-09-13T03:36:09.563Z,102403.03
2022-09-13T03:38:39.359Z,102401.13
2022-09-13T03:41:08.727Z,102402.69
2022-09-13T03:43:46.339Z,102394.06
2022-09-13T03:46:17.528Z,102387.53
2022-09-13T03:48:43.926Z,102392.69
2022-09-13T03:51:11.213Z,102385.25
2022-09-13T03:53:40.071Z,102383.03
2022-09-13T03:56:13.523Z,102374.19
2022-09-13T03:58:39.838Z,102397.41
2022-09-13T04:01:06.343Z,102386.97
2022-09-13T04:03:32.745Z,102389.22
2022-09-13T04:05:59.060Z,102374.28
2022-09-13T04:08:25.365Z,102377.56
2022-09-13T04:10:54.776Z,102376.75
2022-09-13T04:13:22.927Z,102385.75
2022-09-13T04:15:50.173Z,102396.47
2022-09-13T04:18:17.382Z,102389.38
2022-09-13T04:20:43.769Z,102402.34
2022-09-13T04:23:10.115Z,102410.94
2022-09-13T04:25:38.597Z,102418.06
2022-09-13T04:28:04.924Z,102425.03
2022-09-13T04:30:31.310Z,102389.38
2022-09-13T04:32:57.815Z,102391.81
2022-09-13T04:35:24.125Z,102376.75
2022-09-13T04:37:50.450Z,102393.63
2022-09-13T04:40:16.980Z,102393.38
2022-09-13T04:42:46.358Z,102385.00
2022-09-13T04:45:12.689Z,102386.09
2022-09-13T04:47:39.009Z,102386.53
2022-09-13T04:50:05.470Z,102375.50
2022-09-13T04:52:31.917Z,102368.69
2022-09-13T04:55:01.489Z,102350.47
2022-09-13T04:57:28.585Z,102351.09
2022-09-13T04:59:54.882Z,102347.41
2022-09-13T05:02:21.314Z,102342.47
2022-09-13T05:04:47.658Z,102344.72
2022-09-13T05:07:13.986Z,102340.41
2022-09-13T05:09:40.322Z,102332.72
2022-09-13T05:12:06.730Z,102341.69
2022-09-13T05:14:33.067Z,102327.56
2022-09-13T05:16:59.404Z,102326.97
2022-09-13T05:19:25.929Z,102327.63
2022-09-13T05:21:52.233Z,102332.28
2022-09-13T05:24:18.580Z,102323.31
2022-09-13T05:26:44.946Z,102316.13
2022-09-13T05:29:11.251Z,102307.41
2022-09-13T05:31:39.378Z,102286.28
2022-09-13T05:34:07.254Z,102282.78
2022-09-13T05:36:34.120Z,102274.66
2022-09-13T05:39:26.339Z,102272.44
2022-09-13T05:41:47.304Z,102264.66
2022-09-13T05:44:14.045Z,102247.56
2022-09-13T05:46:41.066Z,102233.78
2022-09-13T05:49:07.377Z,102224.94
2022-09-13T05:51:33.746Z,102206.22
2022-09-13T05:54:00.113Z,102212.22
2022-09-13T05:56:28.493Z,102214.41
2022-09-13T05:58:55.501Z,102215.88
2022-09-13T06:01:26.165Z,102221.13
2022-09-13T06:03:53.993Z,102224.22
2022-09-13T06:06:20.845Z,102213.50
2022-09-13T06:08:47.577Z,102209.50
2022-09-13T06:11:14.714Z,102209.19
2022-09-13T06:13:43.227Z,102213.50
2022-09-13T06:16:10.485Z,102200.81
2022-09-13T06:18:37.285Z,102199.84
2022-09-13T06:21:05.154Z,102201.09
2022-09-13T06:23:31.629Z,102195.06
2022-09-13T06:26:02.062Z,102200.81
2022-09-13T06:28:28.575Z,102201.47
2022-09-13T06:31:08.606Z,102201.47
2022-09-13T06:33:35.788Z,102207.78
2022-09-13T06:36:09.907Z,102190.28
2022-09-13T06:38:36.322Z,102184.41
2022-09-13T06:41:12.903Z,102177.63
2022-09-13T06:43:39.394Z,102185.56
2022-09-13T06:46:25.413Z,102171.03
2022-09-13T06:48:52.758Z,102173.66
2022-09-13T06:51:20.562Z,102173.50
2022-09-13T06:53:48.334Z,102166.81
2022-09-13T06:56:16.418Z,102167.13
2022-09-13T06:58:44.133Z,102169.59
2022-09-13T07:01:11.467Z,102151.13
2022-09-13T07:03:42.046Z,102146.47
2022-09-13T07:06:22.685Z,102131.72
2022-09-13T07:08:49.838Z,102127.16
2022-09-13T07:11:18.316Z,102117.78
2022-09-13T07:13:49.107Z,102091.50
2022-09-13T07:16:15.470Z,102082.38
2022-09-13T07:18:41.874Z,102062.97
2022-09-13T07:21:09.284Z,102040.69
2022-09-13T07:23:36.546Z,102016.84
2022-09-13T07:26:05.516Z,101996.06
2022-09-13T07:28:35.428Z,101980.88
2022-09-13T07:31:28.889Z,101948.81
2022-09-13T07:33:58.465Z,101919.47
2022-09-13T07:36:25.323Z,101882.56
2022-09-13T07:38:51.715Z,101855.75
2022-09-13T07:41:19.668Z,101827.81
2022-09-13T07:43:46.600Z,101801.53
2022-09-13T07:46:17.849Z,101755.94
2022-09-13T07:48:45.405Z,101722.25
2022-09-13T07:51:20.712Z,101684.59
2022-09-13T07:53:48.006Z,101623.44
2022-09-13T07:56:15.577Z,101591.72
2022-09-13T07:58:43.344Z,101512.84
2022-09-13T08:01:13.069Z,101438.47
2022-09-13T08:03:39.674Z,101355.81
2022-09-13T08:06:06.767Z,101303.28
2022-09-13T08:08:34.199Z,101264.69
2022-09-13T08:11:01.519Z,101191.28
2022-09-13T08:13:28.912Z,101171.53
2022-09-13T08:15:55.648Z,101121.56
2022-09-13T08:18:22.324Z,101110.09
2022-09-13T08:20:48.679Z,101090.66
2022-09-13T08:23:15.028Z,101066.53
2022-09-13T08:25:41.411Z,101055.66
2022-09-13T08:28:15.603Z,101028.50
2022-09-13T08:30:43.519Z,101027.84
2022-09-13T08:33:13.187Z,101000.91
2022-09-13T08:35:39.517Z,100998.94
2022-09-13T08:38:06.526Z,100991.66
2022-09-13T08:40:38.832Z,100967.81
2022-09-13T08:43:23.913Z,100972.44
2022-09-13T08:45:59.200Z,100950.00
2022-09-13T08:48:31.951Z,100958.53
2022-09-13T08:51:01.270Z,100948.78
2022-09-13T08:53:31.668Z,100946.81
2022-09-13T08:56:07.299Z,100943.47
2022-09-13T08:58:38.876Z,100938.84
2022-09-13T09:01:13.319Z,100932.84
2022-09-13T09:03:46.725Z,100936.22
2022-09-13T09:06:14.733Z,100946.38
2022-09-13T09:08:47.019Z,100919.38
2022-09-13T09:11:31.538Z,100920.47
2022-09-13T09:14:01.676Z,100920.91
2022-09-13T09:16:37.641Z,100924.44
2022-09-13T09:19:18.340Z,100926.28
2022-09-13T09:21:45.050Z,100931.69
2022-09-13T09:24:17.555Z,100920.44
2022-09-13T09:26:43.902Z,100926.56
2022-09-13T09:29:16.185Z,100928.28
2022-09-13T09:31:45.641Z,100919.41
2022-09-13T09:34:32.511Z,100923.34
2022-09-13T09:37:09.881Z,100922.50
2022-09-13T09:39:39.276Z,100906.16
2022-09-13T09:42:17.307Z,100914.78
2022-09-13T09:44:45.835Z,100920.97
2022-09-13T09:47:14.286Z,100897.53
2022-09-13T09:50:12.292Z,100893.28
2022-09-13T09:52:53.711Z,100897.75
2022-09-13T09:55:23.198Z,100883.19
2022-09-13T09:58:00.462Z,100891.59
2022-09-13T10:00:29.872Z,100879.53
2022-09-13T10:03:01.112Z,100870.38
2022-09-13T10:05:27.733Z,100881.47
2022-09-13T10:07:56.674Z,100890.94
2022-09-13T10:10:28.815Z,100877.69
2022-09-13T10:12:56.484Z,100902.59
2022-09-13T10:15:25.555Z,100894.72
2022-09-13T10:18:03.192Z,100888.41
2022-09-13T10:20:29.639Z,100875.59
2022-09-13T10:23:11.290Z,100866.84
2022-09-13T10:25:38.289Z,100856.50
2022-09-13T10:28:06.782Z,100846.34
2022-09-13T10:30:37.287Z,100851.97
2022-09-13T10:33:04.991Z,100850.50
2022-09-13T10:35:31.913Z,100854.09
2022-09-13T10:37:58.266Z,100853.06
2022-09-13T10:40:29.439Z,100857.38
2022-09-13T10:43:01.657Z,100846.91
2022-09-13T10:45:29.934Z,100822.38
2022-09-13T10:48:03.538Z,100819.63
2022-09-13T10:50:31.397Z,100807.47
2022-09-13T10:52:58.695Z,100785.00
2022-09-13T10:55:26.880Z,100734.44
2022-09-13T10:58:13.669Z,100784.94
2022-09-13T11:00:43.016Z,100711.28
2022-09-13T11:03:09.295Z,100721.88
2022-09-13T11:05:47.823Z,100734.28
2022-09-13T11:08:23.570Z,100726.88
2022-09-13T11:11:01.258Z,100741.66
2022-09-13T11:13:27.558Z,100738.41
2022-09-13T11:15:58.238Z,100755.13
2022-09-13T11:18:33.306Z,100733.31
2022-09-13T11:21:18.441Z,100765.16
2022-09-13T11:24:06.046Z,100763.72
2022-09-13T11:26:51.486Z,100783.03
2022-09-13T11:29:25.725Z,100771.53
2022-09-13T11:31:58.392Z,100764.19
2022-09-13T11:34:32.622Z,100766.53
2022-09-13T11:37:17.917Z,100763.94
2022-09-13T11:39:55.576Z,100778.88
2022-09-13T11:42:21.869Z,100762.84
2022-09-13T11:45:08.484Z,100760.84
2022-09-13T11:47:53.263Z,100766.81
2022-09-13T11:50:29.541Z,100755.59
2022-09-13T11:53:04.609Z,100741.50
2022-09-13T11:55:30.934Z,100759.50
2022-09-13T11:58:00.301Z,100746.63
2022-09-13T12:00:30.144Z,100738.28
2022-09-13T12:03:17.579Z,100737.53
2022-09-13T12:05:52.562Z,100732.00
2022-09-13T12:08:25.399Z,100752.41
2022-09-13T12:10:56.673Z,100745.31
2022-09-13T12:13:25.694Z,100751.84
2022-09-13T12:15:53.797Z,100750.31
2022-09-13T12:18:28.867Z,100748.25
2022-09-13T12:20:57.575Z,100735.75
2022-09-13T12:23:35.981Z,100715.19
2022-09-13T12:26:05.903Z,100721.31
2022-09-13T12:28:35.396Z,100717.66
2022-09-13T12:31:05.106Z,100707.28
2022-09-13T12:33:31.514Z,100670.81
2022-09-13T12:36:05.807Z,100662.47
2022-09-13T12:38:32.159Z,100672.50
2022-09-13T12:41:08.470Z,100660.75
2022-09-13T12:43:55.822Z,100641.63
2022-09-13T12:46:40.806Z,100625.13
2022-09-13T12:49:33.310Z,100632.19
2022-09-13T12:52:02.742Z,100616.91
2022-09-13T12:54:43.876Z,100611.47
2022-09-13T12:57:28.409Z,100596.22
2022-09-13T13:00:13.274Z,100559.22
2022-09-13T13:02:54.621Z,100520.81
2022-09-13T13:05:24.385Z,100586.88
2022-09-13T13:08:01.249Z,100608.06
2022-09-13T13:10:30.668Z,100677.63
2022-09-13T13:13:09.774Z,100724.00
2022-09-13T13:15:36.078Z,100754.13
2022-09-13T13:18:34.897Z,100732.09
2022-09-13T13:21:01.211Z,100693.88
2022-09-13T13:23:31.080Z,100663.78
2022-09-13T13:25:57.743Z,100676.69
2022-09-13T13:28:42.527Z,100705.72
2022-09-13T13:31:09.676Z,100706.81
2022-09-13T13:33:49.578Z,100746.25
2022-09-13T13:36:28.839Z,100753.84
2022-09-13T13:38:55.833Z,100761.63
2022-09-13T13:41:35.255Z,100766.09
2022-09-13T13:44:02.626Z,100767.63
2022-09-13T13:46:32.930Z,100748.09
2022-09-13T13:49:22.287Z,100777.16
2022-09-13T13:52:08.681Z,100743.25
2022-09-13T13:54:58.343Z,100743.50
2022-09-13T13:57:33.903Z,100741.59
2022-09-13T14:00:14.986Z,100757.97
2022-09-13T14:02:50.494Z,100725.59
2022-09-13T14:05:29.241Z,100718.56
2022-09-13T14:10:49.561Z,100705.31
2022-09-13T14:13:25.681Z,100713.63
2022-09-13T14:16:10.517Z,100695.34
2022-09-13T14:18:52.224Z,100666.81
2022-09-13T14:21:23.903Z,100649.34
2022-09-13T14:23:50.743Z,100616.78
2022-09-13T14:26:17.314Z,100585.13
2022-09-13T14:28:43.706Z,100587.69
2022-09-13T14:31:16.781Z,100645.59
2022-09-13T14:33:43.215Z,100679.78
2022-09-13T14:36:22.529Z,100655.34
2022-09-13T14:38:55.481Z,100582.09
2022-09-13T14:41:22.770Z,100533.19
2022-09-13T14:43:49.807Z,100486.16
2022-09-13T14:46:22.389Z,100515.06
2022-09-13T14:48:51.731Z,100600.34
2022-09-13T14:51:21.143Z,100672.19
2022-09-13T14:53:50.231Z,100709.31
2022-09-13T14:56:19.806Z,100748.75
2022-09-13T14:58:51.996Z,100769.97
2022-09-13T15:01:26.659Z,100746.66
2022-09-13T15:03:56.131Z,100723.03
2022-09-13T15:06:24.926Z,100741.16
2022-09-13T15:08:52.427Z,100717.31
2022-09-13T15:11:35.939Z,100716.03
2022-09-13T15:14:03.862Z,100698.81
2022-09-13T15:16:34.242Z,100706.19
2022-09-13T15:19:19.205Z,100693.47
2022-09-13T15:21:46.668Z,100691.03
2022-09-13T15:24:33.201Z,100692.72
2022-09-13T15:27:04.512Z,100682.72
2022-09-13T15:29:34.856Z,100677.28
2022-09-13T15:32:02.278Z,100653.88
2022-09-13T15:34:28.971Z,100666.97
2022-09-13T15:37:01.134Z,100627.13
2022-09-13T15:39:27.702Z,100640.41
2022-09-13T15:42:00.929Z,100654.72
2022-09-13T15:44:29.734Z,100687.88
2022-09-13T15:46:57.596Z,100674.41
2022-09-13T15:49:26.472Z,100678.56
2022-09-13T15:51:54.006Z,100681.63
2022-09-13T15:54:22.746Z,100662.94
2022-09-13T15:56:51.826Z,100664.47
2022-09-13T15:59:20.061Z,100665.66
2022-09-13T16:01:47.997Z,100711.66
2022-09-13T16:04:14.352Z,100693.31
2022-09-13T16:06:40.963Z,100674.22
2022-09-13T16:09:19.099Z,100710.88
2022-09-13T16:11:46.405Z,100709.94
2022-09-13T16:14:13.146Z,100716.31
2022-09-13T16:16:39.740Z,100692.91
2022-09-13T16:19:06.091Z,100681.91
2022-09-13T16:21:32.494Z,100660.75
2022-09-13T16:23:59.195Z,100655.28
2022-09-13T16:26:34.271Z,100640.69
2022-09-13T16:29:00.691Z,100633.09
2022-09-13T16:31:27.118Z,100626.00
2022-09-13T16:33:54.040Z,100636.84
2022-09-13T16:36:20.404Z,100652.44
2022-09-13T16:38:46.710Z,100635.59
2022-09-13T16:41:13.048Z,100627.53
2022-09-13T16:43:39.424Z,100625.72
2022-09-13T16:46:07.148Z,100620.81
2022-09-13T16:48:33.833Z,100590.88
2022-09-13T16:51:03.764Z,100586.81
2022-09-13T16:53:37.524Z,100581.66
2022-09-13T16:56:06.803Z,100600.88
2022-09-13T16:58:36.005Z,100591.72
2022-09-13T17:01:03.715Z,100582.44
2022-09-13T17:03:30.015Z,100567.31
2022-09-13T17:05:59.762Z,100586.75
2022-09-13T17:08:26.167Z,100600.22
2022-09-13T17:10:52.478Z,100637.88
2022-09-13T17:13:18.859Z,100687.81
2022-09-13T17:15:45.294Z,100702.13
2022-09-13T17:18:11.694Z,100719.25
2022-09-13T17:20:42.978Z,100720.31
2022-09-13T17:23:09.507Z,100752.53
2022-09-13T17:25:35.917Z,100758.69
2022-09-13T17:28:02.454Z,100792.34
2022-09-13T17:30:28.862Z,100822.78
2022-09-13T17:32:55.176Z,100855.53
2022-09-13T17:35:22.665Z,100894.66
2022-09-13T17:37:48.991Z,100933.22
2022-09-13T17:40:15.584Z,100969.97
2022-09-13T17:42:42.314Z,100996.41
2022-09-13T17:45:09.214Z,101031.22
2022-09-13T17:47:35.540Z,101061.53
2022-09-13T17:50:02.142Z,101095.28
2022-09-13T17:52:31.553Z,101131.13
2022-09-13T17:55:01.053Z,101173.91
2022-09-13T17:57:28.095Z,101202.31
2022-09-13T17:59:54.902Z,101244.16
2022-09-13T18:02:25.928Z,101275.13
2022-09-13T18:04:52.455Z,101309.28
2022-09-13T18:07:18.975Z,101338.78
2022-09-13T18:09:45.407Z,101376.94
2022-09-13T18:12:11.927Z,101420.81
2022-09-13T18:14:38.950Z,101452.38
2022-09-13T18:17:12.840Z,101490.72
2022-09-13T18:19:46.248Z,101525.63
2022-09-13T18:22:12.968Z,101572.00
2022-09-13T18:24:39.330Z,101581.13
2022-09-13T18:27:05.778Z,101608.44
2022-09-13T18:29:32.888Z,101625.41
2022-09-13T18:31:59.215Z,101658.94
2022-09-13T18:34:27.721Z,101677.44
2022-09-13T18:36:54.304Z,101692.91
2022-09-13T18:39:22.397Z,101699.75
2022-09-13T18:41:49.206Z,101714.69
2022-09-13T18:44:16.408Z,101727.44
2022-09-13T18:46:43.158Z,101732.59
2022-09-13T18:49:10.197Z,101732.03
2022-09-13T18:51:38.302Z,101742.03
2022-09-13T18:54:05.802Z,101750.34
2022-09-13T18:56:32.879Z,101751.13
2022-09-13T18:59:00.009Z,101762.16
2022-09-13T19:01:27.997Z,101757.81
2022-09-13T19:03:55.754Z,101758.75
2022-09-13T19:06:23.410Z,101751.28
2022-09-13T19:08:50.665Z,101742.69
2022-09-13T19:11:42.056Z,101727.16
2022-09-13T19:14:04.703Z,101722.53
2022-09-13T19:16:31.038Z,101724.03
2022-09-13T19:18:57.433Z,101723.44
2022-09-13T19:21:25.009Z,101708.59
2022-09-13T19:23:59.471Z,101712.94
2022-09-13T19:26:31.954Z,101693.31
2022-09-13T19:29:03.754Z,101682.09
2022-09-13T19:31:30.920Z,101676.78
2022-09-13T19:33:57.628Z,101687.81
2022-09-13T19:36:25.921Z,101682.88
2022-09-13T19:38:53.111Z,101687.47
2022-09-13T19:41:20.583Z,101694.88
2022-09-13T19:43:47.589Z,101691.00
2022-09-13T19:46:14.919Z,101690.31
2022-09-13T19:48:43.136Z,101701.75
2022-09-13T19:51:11.039Z,101717.00
2022-09-13T19:53:56.052Z,101708.72
2022-09-13T19:56:25.014Z,101703.94
2022-09-13T19:58:51.659Z,101686.69
2022-09-13T20:01:23.538Z,101676.50
2022-09-13T20:03:54.122Z,101645.66
2022-09-13T20:06:20.464Z,101644.69
2022-09-13T20:08:47.019Z,101630.38
2022-09-13T20:11:16.080Z,101612.09
2022-09-13T20:13:43.170Z,101599.88
2022-09-13T20:16:15.578Z,101597.22
2022-09-13T20:18:42.114Z,101576.38
2022-09-13T20:21:09.418Z,101556.94
2022-09-13T20:23:39.178Z,101546.47
2022-09-13T20:26:13.320Z,101528.88
2022-09-13T20:28:39.738Z,101512.28
2022-09-13T20:31:06.215Z,101501.41
2022-09-13T20:33:32.878Z,101495.09
2022-09-13T20:36:02.935Z,101468.59
2022-09-13T20:38:29.279Z,101467.72
2022-09-13T20:40:55.776Z,101468.72
2022-09-13T20:43:22.090Z,101456.31
2022-09-13T20:45:56.284Z,101450.31
2022-09-13T20:48:24.712Z,101442.66
2022-09-13T20:51:01.212Z,101447.13
2022-09-13T20:53:28.066Z,101442.91
2022-09-13T20:55:54.738Z,101429.84
2022-09-13T20:58:21.527Z,101427.66
2022-09-13T21:00:48.232Z,101416.97
2022-09-13T21:03:15.454Z,101405.88
2022-09-13T21:05:42.390Z,101417.22
2022-09-13T21:08:33.572Z,101417.75
2022-09-13T21:11:03.273Z,101417.66
2022-09-13T21:13:30.391Z,101415.97
2022-09-13T21:16:02.048Z,101408.47
2022-09-13T21:18:29.201Z,101410.19
2022-09-13T21:20:58.728Z,101401.97
2022-09-13T21:23:25.475Z,101399.91
2022-09-13T21:25:51.859Z,101403.09
2022-09-13T21:28:18.650Z,101402.59
2022-09-13T21:30:54.833Z,101411.22
2022-09-13T21:33:21.195Z,101403.97
2022-09-13T21:35:47.486Z,101396.53
2022-09-13T21:38:13.806Z,101386.66
2022-09-13T21:40:41.132Z,101378.56
2022-09-13T21:43:07.438Z,101386.88
2022-09-13T21:45:33.859Z,101379.28
2022-09-13T21:48:00.626Z,101374.16
2022-09-13T21:50:26.972Z,101358.03
2022-09-13T21:52:53.286Z,101356.31
2022-09-13T21:55:19.581Z,101345.00
2022-09-13T21:57:45.891Z,101331.06
2022-09-13T22:00:14.117Z,101320.41
2022-09-13T22:02:42.085Z,101310.78
2022-09-13T22:05:08.586Z,101306.19
2022-09-13T22:07:34.919Z,101283.16
2022-09-13T22:10:01.223Z,101287.59
2022-09-13T22:12:27.536Z,101262.19
2022-09-13T22:14:53.855Z,101235.31
2022-09-13T22:17:20.187Z,101222.69
2022-09-13T22:19:46.492Z,101210.22
2022-09-13T22:22:12.818Z,101192.28
2022-09-13T22:24:39.124Z,101173.50
2022-09-13T22:27:07.055Z,101149.28
2022-09-13T22:29:33.468Z,101139.34
2022-09-13T22:31:59.769Z,101135.28
2022-09-13T22:34:26.362Z,101124.09
2022-09-13T22:36:55.679Z,101110.56
2022-09-13T22:39:22.341Z,101104.16
2022-09-13T22:41:48.665Z,101100.78
2022-09-13T22:44:15.466Z,101077.47
2022-09-13T22:46:43.177Z,101073.50
2022-09-13T22:49:13.727Z,101070.34
2022-09-13T22:51:40.301Z,101051.31
2022-09-13T22:54:07.818Z,101051.88
2022-09-13T22:56:34.815Z,101045.00
2022-09-13T22:59:02.355Z,101033.22
2022-09-13T23:01:29.442Z,101032.44
2022-09-13T23:03:56.285Z,101017.78
2022-09-13T23:06:25.129Z,101017.16
2022-09-13T23:08:52.299Z,101019.28
2022-09-13T23:11:23.124Z,101011.69
2022-09-13T23:13:50.385Z,101018.63
2022-09-13T23:16:18.904Z,101021.47
2022-09-13T23:18:45.788Z,101031.31
2022-09-13T23:21:12.413Z,101032.25
2022-09-13T23:23:38.919Z,101050.53
2022-09-13T23:26:23.866Z,101039.16
2022-09-13T23:28:56.074Z,101049.47
2022-09-13T23:31:24.289Z,101043.16
2022-09-13T23:33:51.711Z,101053.91
2022-09-13T23:36:19.168Z,101064.06
2022-09-13T23:38:46.903Z,101054.22
2022-09-13T23:41:13.605Z,101079.44
2022-09-13T23:43:40.415Z,101084.84
2022-09-13T23:46:06.813Z,101090.91
2022-09-13T23:48:35.042Z,101098.91
2022-09-13T23:51:05.877Z,101100.13
2022-09-13T23:53:32.805Z,101100.94
2022-09-13T23:55:59.183Z,101108.22
2022-09-13T23:58:26.092Z,101120.69
